Markstay, Canada
Current Conditions -  °F | °C
As of 10:00 PM on Tuesday 21 Oct 2014 (Local Time) from CYSB Reporting Station
Clear Clear  
Wind Chill: 24°   Ceiling: Unl
Heat Index: 32°   Visibility: 15mi
Dew Point: 30°   Wind: 10mph
Humidity: 93%   Direction: 20°NNE
Pressure: 30.29"   Gusts: NA
Location:  46.48°N, 80.53°W
Report Text: CYSB 220200Z 02009KT 15SM SKC 00/M01 A3029 RMK SLP275
Loading
Personal Weather Stations






























Interactive Weather Map
Tropical Storm Tracking
New forecast layout! Learn more

10-Day Weather Forecast

Advertisements
Track Severe Weather on mobile